createdAt,value
2023-03-23T15:59:30.678Z,8.57
2023-03-23T16:02:02.107Z,9.38
2023-03-23T16:04:30.539Z,11.70
2023-03-23T16:06:59.372Z,10.68
2023-03-23T16:09:26.928Z,9.18
2023-03-23T16:11:54.494Z,12.43
2023-03-23T16:14:22.120Z,7.78
2023-03-23T16:16:51.222Z,10.00
2023-03-23T16:19:20.734Z,8.43
2023-03-23T16:21:48.263Z,10.77
2023-03-23T16:24:16.072Z,9.95
2023-03-23T16:26:43.732Z,9.80
2023-03-23T16:29:23.806Z,14.38
2023-03-23T16:32:00.342Z,10.05
2023-03-23T16:34:30.204Z,13.00
2023-03-23T16:36:57.680Z,16.63
2023-03-23T16:39:25.353Z,16.70
2023-03-23T16:42:19.024Z,49.80
2023-03-23T16:44:47.843Z,27.25
2023-03-23T16:47:16.327Z,14.32
2023-03-23T16:49:43.855Z,17.25
2023-03-23T16:52:11.360Z,16.33
2023-03-23T16:54:38.853Z,26.67
2023-03-23T16:57:06.772Z,25.83
2023-03-23T16:59:36.488Z,40.30
2023-03-23T17:02:04.469Z,51.90
2023-03-23T17:04:32.275Z,45.97
2023-03-23T17:07:00.116Z,51.42
2023-03-23T17:09:27.815Z,58.57
2023-03-23T17:11:55.281Z,52.35
2023-03-23T17:14:22.996Z,52.83
2023-03-23T17:16:50.670Z,51.97
2023-03-23T17:19:18.432Z,45.55
2023-03-23T17:21:46.117Z,42.55
2023-03-23T17:24:13.895Z,30.40
2023-03-23T17:26:42.052Z,35.97
2023-03-23T17:29:09.655Z,37.70
2023-03-23T17:31:37.341Z,46.33
2023-03-23T17:34:05.135Z,103.07
2023-03-23T17:36:32.685Z,165.63
2023-03-23T17:39:00.721Z,107.28
2023-03-23T17:41:28.199Z,143.40
2023-03-23T17:43:55.821Z,122.30
2023-03-23T17:46:25.877Z,120.38
2023-03-23T17:48:53.722Z,86.22
2023-03-23T17:51:21.726Z,82.10
2023-03-23T17:53:49.613Z,69.78
2023-03-23T17:56:17.058Z,73.60
2023-03-23T17:58:44.656Z,65.90
2023-03-23T18:01:12.365Z,77.22
2023-03-23T18:03:40.097Z,88.75
2023-03-23T18:06:10.986Z,68.95
2023-03-23T18:08:40.844Z,58.90
2023-03-23T18:11:08.451Z,56.45
2023-03-23T18:13:36.650Z,59.08
2023-03-23T18:16:04.430Z,56.65
2023-03-23T18:18:33.505Z,65.15
2023-03-23T18:23:28.842Z,106.05
2023-03-23T18:25:56.513Z,136.30
2023-03-23T18:28:31.293Z,120.88
2023-03-23T18:31:29.175Z,143.02
2023-03-23T18:33:56.793Z,135.18
2023-03-23T18:36:25.808Z,121.05
2023-03-23T18:41:20.777Z,100.20
2023-03-23T18:43:48.437Z,99.68
2023-03-23T18:46:19.033Z,107.50
2023-03-23T18:48:46.613Z,125.45
2023-03-23T18:51:14.193Z,137.85
2023-03-23T18:53:41.767Z,169.23
2023-03-23T18:56:10.442Z,158.95
2023-03-23T18:58:41.176Z,158.07
2023-03-23T19:01:11.895Z,170.57
2023-03-23T19:03:39.891Z,212.18
2023-03-23T19:06:07.727Z,167.30
2023-03-23T19:08:35.355Z,135.13
2023-03-23T19:11:03.605Z,130.38
2023-03-23T19:13:31.689Z,129.73
2023-03-23T19:16:00.078Z,130.25
2023-03-23T19:18:48.772Z,133.20
2023-03-23T19:21:19.878Z,130.10
2023-03-23T19:23:49.729Z,133.20
2023-03-23T19:26:23.269Z,148.32
2023-03-23T19:31:25.058Z,131.05
2023-03-23T19:33:56.125Z,164.10
2023-03-23T19:36:24.429Z,160.27
2023-03-23T19:38:54.467Z,135.07
2023-03-23T19:41:22.440Z,145.07
2023-03-23T19:43:50.140Z,150.20
2023-03-23T19:46:17.927Z,121.85
2023-03-23T19:48:46.679Z,108.35
2023-03-23T19:51:18.789Z,104.93
2023-03-23T19:53:49.271Z,109.07
2023-03-23T19:56:21.660Z,113.93
2023-03-23T19:58:49.491Z,117.10
2023-03-23T20:01:19.939Z,112.65
2023-03-23T20:03:58.590Z,118.35
2023-03-23T20:06:30.856Z,126.03
2023-03-23T20:09:01.408Z,137.10
2023-03-23T20:11:37.853Z,118.28
2023-03-23T20:14:11.154Z,117.72
2023-03-23T20:16:53.905Z,113.68
2023-03-23T20:19:24.276Z,139.07
2023-03-23T20:21:56.388Z,173.05
2023-03-23T20:36:03.900Z,143.43
2023-03-23T20:38:39.782Z,139.70
2023-03-23T20:41:11.797Z,131.45
2023-03-23T20:43:46.837Z,120.50
2023-03-23T20:46:17.169Z,121.25
2023-03-23T20:48:46.046Z,124.03
2023-03-23T20:51:13.571Z,126.43
2023-03-23T20:53:41.135Z,123.03
2023-03-23T20:56:08.962Z,141.55
2023-03-23T20:58:36.926Z,132.95
2023-03-23T21:01:05.699Z,115.78
2023-03-23T21:03:41.084Z,127.22
2023-03-23T21:07:03.306Z,136.60
2023-03-23T21:12:31.898Z,141.10
2023-03-23T21:15:04.064Z,118.95
2023-03-23T21:17:40.078Z,95.55
2023-03-23T21:20:11.635Z,96.13
2023-03-23T21:22:42.276Z,94.28
2023-03-23T21:25:34.267Z,94.35
2023-03-23T21:28:03.182Z,102.07
2023-03-23T21:30:30.627Z,101.82
2023-03-23T21:33:01.920Z,110.97
2023-03-23T21:35:32.308Z,105.85
2023-03-23T21:38:02.730Z,101.00
2023-03-23T21:40:33.857Z,97.82
2023-03-23T21:43:01.576Z,94.65
2023-03-23T21:45:34.909Z,98.38
2023-03-23T21:48:06.716Z,105.03
2023-03-23T21:50:35.929Z,107.35
2023-03-23T21:53:03.781Z,106.07
2023-03-23T21:55:31.562Z,113.28
2023-03-23T21:57:59.096Z,106.03
2023-03-23T22:00:27.010Z,110.22
2023-03-23T22:02:55.035Z,97.20
2023-03-23T22:05:25.740Z,117.88
2023-03-23T22:07:56.593Z,136.93
2023-03-23T22:10:26.796Z,99.22
2023-03-23T22:12:55.586Z,90.03
2023-03-23T22:15:29.549Z,99.65
2023-03-23T22:17:57.176Z,80.07
2023-03-23T22:20:25.893Z,75.40
2023-03-23T22:22:53.655Z,84.53
2023-03-23T22:25:21.230Z,76.75
2023-03-23T22:27:48.905Z,72.43
2023-03-23T22:30:16.517Z,73.20
2023-03-23T22:32:44.250Z,70.03
2023-03-23T22:35:12.914Z,78.55
2023-03-23T22:37:40.561Z,70.85
2023-03-23T22:40:10.275Z,80.28
2023-03-23T22:42:37.822Z,83.78
2023-03-23T22:45:09.411Z,77.95
2023-03-23T22:47:38.431Z,72.60
2023-03-23T22:50:06.955Z,72.50
2023-03-23T22:52:36.977Z,68.50
2023-03-23T22:55:05.961Z,56.63
2023-03-23T22:57:33.710Z,77.70
2023-03-23T23:00:01.203Z,76.55
2023-03-23T23:02:29.138Z,75.13
2023-03-23T23:04:59.445Z,68.65
2023-03-23T23:07:26.951Z,71.95
2023-03-23T23:09:56.429Z,82.30
2023-03-23T23:12:24.408Z,77.45
2023-03-23T23:14:52.421Z,79.18
2023-03-23T23:17:20.165Z,85.00
2023-03-23T23:19:47.785Z,80.00
2023-03-23T23:22:19.369Z,79.45
2023-03-23T23:24:50.125Z,73.03
2023-03-23T23:27:18.345Z,80.93
2023-03-23T23:29:45.910Z,79.00
2023-03-23T23:32:13.421Z,78.25
2023-03-23T23:34:41.162Z,84.25
2023-03-23T23:37:09.182Z,73.78
2023-03-23T23:39:38.898Z,71.13
2023-03-23T23:42:06.557Z,70.03
2023-03-23T23:44:34.289Z,77.53
2023-03-23T23:47:02.711Z,77.35
2023-03-23T23:49:31.988Z,76.10
2023-03-23T23:51:59.427Z,76.93
2023-03-23T23:54:30.239Z,81.60
2023-03-23T23:57:01.588Z,77.80
2023-03-23T23:59:29.314Z,83.90
